FVCD weather

Chirundu Airport
Chirundu, Mashonaland West Province, Zimbabwe

Public forecast

Using degrees Celsius for public forecast. Weather courtesy of forecast.io.

Closest aviation weather report (METAR) to Chirundu Airport

Report is more than 6 hours old.

Closest report is Kariba International Airport, 31.3 nm (58.0 km) S. Retrieved 2020/03/25 13:00 UTC (5 days ago):

FVKB 251300Z 32003KT 9999 FEW040TCU SCT300 33/19 Q1009 NOSIG

Closest aviation forecast (TAF) to Chirundu Airport

Forecast is more than 12 hours old.

Closest forecast is Royal Zambesi Lodge Airstrip, 28.5 nm (52.7 km) NE. Retrieved 2020/03/24 06:00 UTC (6 days ago):

TAF FLRZ 240400Z 2406/2512 09005KT 9000 SCT020 BECMG 2408/2410 12010KT BKN040TCU TEMPO 2414/2416 11005KT 9999 FEW///CB FM241900 VRB03KT CAVOK